createdAt,value
2023-03-16T10:02:51.365Z,95896.28
2023-03-16T10:05:58.403Z,95905.78
2023-03-16T10:09:16.751Z,95903.59
2023-03-16T10:12:22.000Z,95903.09
2023-03-16T10:15:27.064Z,95910.44
2023-03-16T10:18:35.866Z,95897.50
2023-03-16T10:21:41.498Z,95901.47
2023-03-16T10:24:52.764Z,95902.19
2023-03-16T10:27:54.647Z,95899.66
2023-03-16T10:30:59.530Z,95898.38
2023-03-16T10:34:06.248Z,95894.44
2023-03-16T10:37:13.518Z,95891.13
2023-03-16T10:40:15.905Z,95885.91
2023-03-16T10:43:19.463Z,95885.88
2023-03-16T10:46:21.909Z,95880.31
2023-03-16T10:49:27.997Z,95879.66
2023-03-16T10:52:34.408Z,95863.59
2023-03-16T10:55:43.274Z,95874.66
2023-03-16T10:58:45.197Z,95864.31
2023-03-16T11:01:50.093Z,95862.63
2023-03-16T11:04:54.577Z,95865.09
2023-03-16T11:08:00.861Z,95861.63
2023-03-16T11:11:10.389Z,95847.16
2023-03-16T11:14:13.725Z,95855.38
2023-03-16T11:17:18.010Z,95856.91
2023-03-16T11:20:27.213Z,95845.88
2023-03-16T11:23:32.620Z,95857.25
2023-03-16T11:26:38.100Z,95853.69
2023-03-16T11:29:58.434Z,95842.59
2023-03-16T11:33:01.879Z,95837.88
2023-03-16T11:36:24.208Z,95830.00
2023-03-16T11:39:37.023Z,95821.69
2023-03-16T11:42:46.226Z,95813.56
2023-03-16T11:45:51.957Z,95815.44
2023-03-16T11:49:14.725Z,95821.34
2023-03-16T11:52:30.342Z,95805.34
2023-03-16T11:55:42.623Z,95802.69
2023-03-16T11:59:07.175Z,95791.00
2023-03-16T12:02:33.407Z,95792.50
2023-03-16T12:05:55.305Z,95793.78
2023-03-16T12:09:13.001Z,95787.84
2023-03-16T12:12:29.736Z,95784.44
2023-03-16T12:15:39.824Z,95778.31
2023-03-16T12:18:48.028Z,95765.78
2023-03-16T12:22:02.590Z,95772.63
2023-03-16T12:25:19.204Z,95775.66
2023-03-16T12:28:25.907Z,95757.38
2023-03-16T12:31:36.833Z,95745.59
2023-03-16T12:34:44.710Z,95752.41
2023-03-16T12:38:00.708Z,95746.94
2023-03-16T12:41:20.205Z,95754.81
2023-03-16T12:44:29.001Z,95746.03
2023-03-16T12:47:37.314Z,95744.66
2023-03-16T12:50:49.246Z,95745.72
2023-03-16T12:53:54.556Z,95738.81
2023-03-16T12:57:04.903Z,95735.69
2023-03-16T13:00:08.640Z,95733.22
2023-03-16T13:03:16.279Z,95729.47
2023-03-16T13:06:22.163Z,95734.13
2023-03-16T13:09:27.220Z,95719.06
2023-03-16T13:12:32.139Z,95725.56
2023-03-16T13:15:34.020Z,95721.41
2023-03-16T13:18:38.834Z,95724.97
2023-03-16T13:21:42.163Z,95725.94
2023-03-16T13:24:52.747Z,95719.91
2023-03-16T13:27:56.809Z,95718.03
2023-03-16T13:31:00.314Z,95717.94
2023-03-16T13:34:03.040Z,95716.34
2023-03-16T13:37:14.084Z,95724.09
2023-03-16T13:40:19.514Z,95712.78
2023-03-16T13:43:24.941Z,95709.97
2023-03-16T13:46:30.034Z,95713.91
2023-03-16T13:49:32.125Z,95710.00
2023-03-16T13:52:35.927Z,95713.00
2023-03-16T13:55:38.408Z,95711.59
2023-03-16T13:58:45.779Z,95715.09
2023-03-16T14:01:48.866Z,95717.00
2023-03-16T14:04:51.567Z,95710.97
2023-03-16T14:07:55.269Z,95704.44
2023-03-16T14:11:01.066Z,95700.53
2023-03-16T14:14:16.077Z,95699.69
2023-03-16T14:17:21.698Z,95698.66
2023-03-16T14:20:25.581Z,95695.03
2023-03-16T14:23:32.978Z,95692.47
2023-03-16T14:26:42.205Z,95686.25
2023-03-16T14:29:50.621Z,95688.19
2023-03-16T14:32:57.903Z,95683.31
2023-03-16T14:36:07.658Z,95686.00
2023-03-16T14:39:14.754Z,95683.88
2023-03-16T14:42:21.079Z,95680.09
2023-03-16T14:45:31.560Z,95674.75
2023-03-16T14:48:34.674Z,95664.16
2023-03-16T14:51:40.384Z,95662.91
2023-03-16T14:54:45.116Z,95669.47
2023-03-16T14:57:47.593Z,95670.34
2023-03-16T15:00:53.422Z,95667.72
2023-03-16T15:03:56.602Z,95663.03
2023-03-16T15:06:58.891Z,95670.44
2023-03-16T15:10:06.456Z,95669.50
2023-03-16T15:13:14.521Z,95656.00
2023-03-16T15:16:20.421Z,95652.63
2023-03-16T15:19:25.525Z,95666.03
2023-03-16T15:22:30.467Z,95657.69
2023-03-16T15:25:35.496Z,95655.91
2023-03-16T15:28:37.499Z,95659.97
2023-03-16T15:31:43.542Z,95655.06
2023-03-16T15:34:45.672Z,95656.00
2023-03-16T15:37:47.990Z,95648.25
2023-03-16T15:40:53.676Z,95651.16
2023-03-16T15:43:56.062Z,95648.22
2023-03-16T15:46:59.883Z,95649.69
2023-03-16T15:50:01.940Z,95649.16
2023-03-16T15:53:29.329Z,95654.41
2023-03-16T15:56:47.181Z,95650.00
2023-03-16T15:59:55.386Z,95651.38
2023-03-16T16:02:59.942Z,95649.53
2023-03-16T16:06:02.056Z,95648.53
2023-03-16T16:09:04.170Z,95650.38
2023-03-16T16:12:10.440Z,95649.06
2023-03-16T16:15:19.951Z,95648.81
2023-03-16T16:18:28.978Z,95655.28
2023-03-16T16:21:31.026Z,95651.97
2023-03-16T16:24:34.660Z,95655.09
2023-03-16T16:27:36.543Z,95656.75
2023-03-16T16:30:39.061Z,95650.94
2023-03-16T16:33:43.796Z,95646.38
2023-03-16T16:36:47.488Z,95641.00
2023-03-16T16:39:49.837Z,95636.22
2023-03-16T16:42:54.228Z,95641.50
2023-03-16T16:45:56.926Z,95645.22
2023-03-16T16:49:06.675Z,95641.69
2023-03-16T16:52:13.998Z,95640.94
2023-03-16T16:55:16.602Z,95636.09
2023-03-16T16:58:24.423Z,95641.06
2023-03-16T17:01:28.802Z,95627.59
2023-03-16T17:04:32.927Z,95632.34
2023-03-16T17:07:34.983Z,95630.91
2023-03-16T17:10:37.655Z,95622.69
2023-03-16T17:13:41.288Z,95613.59
2023-03-16T17:16:44.940Z,95616.16
2023-03-16T17:19:48.594Z,95603.31
2023-03-16T17:22:51.607Z,95614.28
2023-03-16T17:25:54.246Z,95615.34
2023-03-16T17:28:59.769Z,95625.41
2023-03-16T17:32:08.204Z,95620.38
2023-03-16T17:35:16.961Z,95634.44
2023-03-16T17:38:21.575Z,95641.31
2023-03-16T17:41:26.711Z,95647.03
2023-03-16T17:44:32.946Z,95649.22
2023-03-16T17:47:36.286Z,95646.69
2023-03-16T17:50:41.584Z,95643.06
2023-03-16T17:53:45.830Z,95649.31
2023-03-16T17:56:52.191Z,95639.84
2023-03-16T17:59:56.017Z,95643.78
2023-03-16T18:03:01.923Z,95634.94
2023-03-16T18:06:07.404Z,95642.38
2023-03-16T18:09:11.411Z,95633.47
2023-03-16T18:12:14.500Z,95637.38
2023-03-16T18:15:18.017Z,95631.84
2023-03-16T18:18:25.329Z,95639.19
2023-03-16T18:21:30.218Z,95635.28
2023-03-16T18:24:35.070Z,95636.25
2023-03-16T18:27:37.626Z,95626.47
2023-03-16T18:30:42.896Z,95637.78
2023-03-16T18:33:49.255Z,95635.16
2023-03-16T18:36:54.572Z,95628.91
2023-03-16T18:39:58.715Z,95631.22
2023-03-16T18:43:06.112Z,95638.34
2023-03-16T18:46:21.893Z,95642.88
2023-03-16T18:49:32.449Z,95639.75
2023-03-16T18:52:38.907Z,95631.72
2023-03-16T18:55:42.277Z,95640.66
2023-03-16T18:58:46.153Z,95641.50
2023-03-16T19:01:50.290Z,95648.06
2023-03-16T19:04:53.953Z,95643.81
2023-03-16T19:07:59.445Z,95627.97
2023-03-16T19:11:05.266Z,95625.53
2023-03-16T19:14:16.413Z,95629.50
2023-03-16T19:17:20.257Z,95627.31
2023-03-16T19:20:29.999Z,95629.13
2023-03-16T19:23:37.200Z,95631.81
2023-03-16T19:26:45.343Z,95627.00
2023-03-16T19:29:50.958Z,95624.25
2023-03-16T19:32:58.567Z,95627.28
2023-03-16T19:36:03.718Z,95624.41
2023-03-16T19:39:13.181Z,95614.47
2023-03-16T19:42:22.289Z,95619.72
2023-03-16T19:45:29.329Z,95617.59
2023-03-16T19:48:34.128Z,95625.19
2023-03-16T19:51:37.158Z,95626.66
2023-03-16T19:54:45.063Z,95620.19
2023-03-16T19:57:50.566Z,95632.09
2023-03-16T20:00:55.287Z,95628.00
2023-03-16T20:04:04.249Z,95626.00
2023-03-16T20:07:15.290Z,95623.13
2023-03-16T20:10:23.310Z,95618.44
2023-03-16T20:13:27.269Z,95613.88
2023-03-16T20:16:36.563Z,95615.88
2023-03-16T20:19:39.622Z,95610.84
2023-03-16T20:22:43.282Z,95608.88
2023-03-16T20:25:49.703Z,95610.88
2023-03-16T20:28:53.521Z,95600.97
2023-03-16T20:31:58.695Z,95598.75
2023-03-16T20:35:02.890Z,95607.84
2023-03-16T20:38:12.711Z,95611.19
2023-03-16T20:41:24.433Z,95607.53
2023-03-16T20:44:28.866Z,95600.63
2023-03-16T20:47:33.427Z,95600.63
2023-03-16T20:50:35.980Z,95599.72
2023-03-16T20:53:38.579Z,95597.06
2023-03-16T20:56:43.817Z,95593.72
2023-03-16T20:59:46.565Z,95592.94
2023-03-16T21:02:48.936Z,95594.56
2023-03-16T21:05:53.308Z,95596.78
2023-03-16T21:08:57.932Z,95593.66
2023-03-16T21:12:02.658Z,95590.19
2023-03-16T21:15:16.067Z,95588.78
2023-03-16T21:18:22.346Z,95589.91
2023-03-16T21:21:25.710Z,95590.66
2023-03-16T21:24:28.290Z,95582.50
2023-03-16T21:27:34.454Z,95581.66
2023-03-16T21:30:40.432Z,95577.19
2023-03-16T21:33:42.882Z,95588.97
2023-03-16T21:36:45.259Z,95583.47
2023-03-16T21:39:48.235Z,95583.38
2023-03-16T21:42:52.300Z,95580.69
2023-03-16T21:45:55.286Z,95565.78
2023-03-16T21:48:57.855Z,95563.81
2023-03-16T21:52:00.126Z,95566.00
2023-03-16T21:55:01.979Z,95580.91
2023-03-16T21:58:05.111Z,95563.28
2023-03-16T22:01:07.219Z,95562.47
2023-03-16T22:04:16.522Z,95561.91
2023-03-16T22:07:18.744Z,95556.50
2023-03-16T22:10:21.089Z,95541.72
2023-03-16T22:13:24.702Z,95552.97
2023-03-16T22:16:31.540Z,95545.03
2023-03-16T22:19:33.789Z,95541.88
2023-03-16T22:22:36.041Z,95535.72
2023-03-16T22:25:41.668Z,95540.78
2023-03-16T22:28:45.187Z,95551.00
2023-03-16T22:31:47.961Z,95541.13
2023-03-16T22:34:52.694Z,95544.38
2023-03-16T22:37:55.303Z,95538.28
2023-03-16T22:40:57.855Z,95534.16
2023-03-16T22:44:01.935Z,95537.84
2023-03-16T22:47:06.739Z,95537.81
2023-03-16T22:50:13.206Z,95550.19
2023-03-16T22:53:20.940Z,95543.75
2023-03-16T22:56:24.151Z,95542.75
2023-03-16T22:59:28.373Z,95538.13
2023-03-16T23:02:30.516Z,95537.75
2023-03-16T23:05:32.703Z,95540.53
2023-03-16T23:08:34.682Z,95542.22
2023-03-16T23:11:38.646Z,95543.25
2023-03-16T23:14:42.284Z,95539.63
2023-03-16T23:17:44.192Z,95543.31
2023-03-16T23:20:47.191Z,95534.94
2023-03-16T23:24:02.665Z,95539.38
2023-03-16T23:27:13.894Z,95536.31
2023-03-16T23:30:25.568Z,95537.41
2023-03-16T23:33:27.452Z,95544.75
2023-03-16T23:36:29.282Z,95536.25
2023-03-16T23:39:31.176Z,95531.19
2023-03-16T23:42:33.263Z,95533.25
2023-03-16T23:45:40.453Z,95536.56
2023-03-16T23:48:44.759Z,95538.13
2023-03-16T23:51:51.077Z,95534.69
2023-03-16T23:54:52.976Z,95533.44
2023-03-16T23:57:56.690Z,95522.72
